Time;durP1;ratioP1;P1;durP2;ratioP2;P2;SDS_P1;SDS_P2;PMS_P1;PMS_P2;Temp;Humidity;BMP_temperature;BMP_pressure;BME280_temperature;BME280_humidity;BME280_pressure;Samples;Min_cycle;Max_cycle;Signal;HPM_P1;HPM_P2
2022/07/30 00:02:00;;;;;;;5.45;3.10;;;16.30;99.90;;;;;;6255323;22;20012;-90
2022/07/30 00:04:26;;;;;;;4.28;2.30;;;16.30;99.90;;;;;;6255164;22;20340;-89
2022/07/30 00:07:42;;;;;;;5.40;2.42;;;16.30;99.90;;;;;;6255475;22;20098;-91
2022/07/30 00:10:09;;;;;;;4.55;2.70;;;16.30;99.90;;;;;;6255031;22;20050;-89
2022/07/30 00:12:34;;;;;;;4.60;2.28;;;16.30;99.90;;;;;;6224036;22;20016;-88
2022/07/30 00:15:00;;;;;;;6.25;2.90;;;16.30;99.90;;;;;;6249722;22;20058;-93
2022/07/30 00:17:26;;;;;;;6.03;2.70;;;16.30;99.90;;;;;;6249731;22;20019;-88
2022/07/30 00:20:07;;;;;;;4.85;2.42;;;16.20;99.90;;;;;;6249915;22;20039;-92
2022/07/30 00:22:33;;;;;;;5.05;2.30;;;16.20;99.90;;;;;;6224699;22;20020;-92
2022/07/30 00:24:58;;;;;;;6.22;2.70;;;16.10;99.90;;;;;;6250851;22;20027;-92
2022/07/30 00:27:24;;;;;;;5.63;2.70;;;16.10;99.90;;;;;;6226611;22;20016;-93
2022/07/30 00:29:50;;;;;;;5.60;2.83;;;16.10;99.90;;;;;;6251954;22;20012;-93
2022/07/30 00:32:15;;;;;;;4.85;2.50;;;16.10;99.90;;;;;;6226375;22;20015;-90
2022/07/30 00:34:41;;;;;;;6.18;2.88;;;16.10;99.90;;;;;;6226910;22;20020;-92
2022/07/30 00:37:07;;;;;;;4.65;2.30;;;16.10;99.90;;;;;;6226649;22;20019;-91
2022/07/30 00:39:32;;;;;;;5.55;2.67;;;16.00;99.90;;;;;;6226271;22;20437;-92
2022/07/30 00:42:00;;;;;;;5.07;2.22;;;16.00;99.90;;;;;;6226451;22;20024;-91
2022/07/30 00:44:27;;;;;;;5.18;2.40;;;16.00;99.90;;;;;;6226523;22;20399;-90
2022/07/30 00:46:54;;;;;;;4.05;2.15;;;15.90;99.90;;;;;;6278627;22;20350;-90
2022/07/30 00:49:20;;;;;;;3.45;1.83;;;15.90;99.90;;;;;;6251904;22;20100;-92
2022/07/30 00:51:48;;;;;;;;;;;15.80;99.90;;;;;;6226964;22;20058;-91
2022/07/30 00:54:14;;;;;;;4.25;1.80;;;15.70;99.90;;;;;;6251568;22;19926;-92
2022/07/30 00:56:41;;;;;;;3.88;1.67;;;15.70;99.90;;;;;;6226267;22;20011;-91
2022/07/30 00:59:07;;;;;;;;;;;15.60;99.90;;;;;;6226546;22;20043;-90
2022/07/30 01:01:33;;;;;;;4.40;2.13;;;15.60;99.90;;;;;;6226384;22;20320;-91
2022/07/30 01:03:59;;;;;;;5.75;2.70;;;15.50;99.90;;;;;;6226017;22;20019;-90
2022/07/30 01:06:38;;;;;;;5.82;2.78;;;15.60;99.90;;;;;;6227091;22;20388;-92
2022/07/30 01:09:04;;;;;;;4.82;2.47;;;15.50;99.90;;;;;;6226267;22;20344;-92
2022/07/30 01:11:41;;;;;;;5.55;3.15;;;15.50;99.90;;;;;;6268112;22;20043;-91
2022/07/30 01:14:15;;;;;;;5.28;3.03;;;15.50;99.90;;;;;;6256230;22;20015;-91
2022/07/30 01:16:41;;;;;;;5.50;3.00;;;15.50;99.90;;;;;;6256707;22;20436;-92
2022/07/30 01:22:18;;;;;;;5.65;3.03;;;15.60;99.90;;;;;;6282343;22;20020;-91
2022/07/30 01:25:23;;;;;;;5.47;2.78;;;15.60;99.90;;;;;;6256721;22;20042;-89
2022/07/30 01:28:11;;;;;;;3.90;2.17;;;15.60;99.90;;;;;;6256874;22;20015;-89
2022/07/30 01:30:43;;;;;;;5.30;2.80;;;15.60;99.90;;;;;;6256453;22;20023;-90
2022/07/30 01:33:14;;;;;;;5.00;2.70;;;15.50;99.90;;;;;;6281756;22;20011;-90
2022/07/30 01:35:42;;;;;;;4.88;2.60;;;15.50;99.90;;;;;;6281975;22;20047;-89
2022/07/30 01:38:11;;;;;;;5.40;2.50;;;15.50;99.90;;;;;;6255580;22;20047;-87
2022/07/30 01:41:15;;;;;;;4.45;2.55;;;15.50;99.90;;;;;;6256410;22;20395;-90
2022/07/30 01:44:24;;;;;;;4.85;2.17;;;15.50;99.90;;;;;;6255956;22;20023;-87
2022/07/30 01:46:50;;;;;;;4.20;2.10;;;15.50;99.90;;;;;;6255685;22;20015;-87
2022/07/30 01:49:16;;;;;;;;;;;15.40;99.90;;;;;;6256452;22;20015;-88
2022/07/30 01:51:45;;;;;;;5.55;2.20;;;15.40;99.90;;;;;;6255901;22;19915;-87
2022/07/30 01:54:12;;;;;;;4.88;2.58;;;15.40;99.90;;;;;;6281499;22;20017;-88
2022/07/30 01:56:52;;;;;;;;;;;15.30;99.90;;;;;;6256744;22;20017;-93
2022/07/30 01:59:20;;;;;;;4.20;2.13;;;15.30;99.90;;;;;;6256332;22;19919;-93
2022/07/30 02:01:46;;;;;;;4.03;2.08;;;15.30;99.90;;;;;;6281622;22;20018;-90
2022/07/30 02:04:12;;;;;;;;;;;15.20;99.90;;;;;;6256707;22;20015;-92
2022/07/30 02:06:45;;;;;;;4.13;2.47;;;15.20;99.90;;;;;;6256020;22;19921;-92
2022/07/30 02:09:14;;;;;;;4.45;1.85;;;15.10;99.90;;;;;;6256135;22;20086;-92
2022/07/30 02:14:40;;;;;;;4.07;1.90;;;15.10;99.90;;;;;;6269191;22;20029;-89
2022/07/30 02:17:08;;;;;;;4.30;2.00;;;15.00;99.90;;;;;;6281151;22;20023;-91
2022/07/30 02:19:39;;;;;;;4.88;2.33;;;15.00;99.90;;;;;;6266201;22;20046;-90
2022/07/30 02:22:12;;;;;;;5.15;2.50;;;15.00;99.90;;;;;;6255861;22;20094;-91
2022/07/30 02:25:07;;;;;;;5.38;2.53;;;15.00;99.90;;;;;;6256792;22;20016;-92
2022/07/30 02:27:37;;;;;;;4.07;2.08;;;15.00;99.90;;;;;;6255459;22;20015;-92
2022/07/30 02:30:04;;;;;;;3.88;1.92;;;15.00;99.90;;;;;;6256039;22;20016;-92
2022/07/30 02:32:33;;;;;;;;;;;15.00;99.90;;;;;;6256633;22;20433;-92
2022/07/30 02:35:09;;;;;;;3.58;1.55;;;15.00;99.90;;;;;;6255897;22;19914;-93
2022/07/30 02:37:36;;;;;;;3.33;1.77;;;15.00;99.90;;;;;;6255815;22;20007;-91
2022/07/30 02:40:03;;;;;;;3.78;1.75;;;15.00;99.90;;;;;;6255725;22;20019;-91
2022/07/30 02:42:30;;;;;;;4.60;2.20;;;15.00;99.90;;;;;;6255697;22;20015;-91
2022/07/30 02:44:57;;;;;;;4.05;1.98;;;15.00;99.90;;;;;;6280961;22;20504;-93
2022/07/30 02:47:25;;;;;;;4.30;2.38;;;15.00;99.90;;;;;;6255571;22;20023;-92
2022/07/30 02:49:53;;;;;;;5.50;2.90;;;15.00;99.90;;;;;;6257198;22;20098;-91
2022/07/30 02:52:20;;;;;;;5.05;2.53;;;15.00;99.90;;;;;;6309484;22;20006;-91
2022/07/30 02:54:48;;;;;;;4.55;2.55;;;15.00;99.90;;;;;;6275803;22;20019;-91
2022/07/30 02:57:15;;;;;;;4.57;2.55;;;15.00;99.90;;;;;;6256645;22;20065;-92
2022/07/30 02:59:43;;;;;;;4.35;2.25;;;15.00;99.90;;;;;;6255563;22;20015;-91
2022/07/30 03:02:12;;;;;;;4.53;2.35;;;15.00;99.90;;;;;;6255531;22;20011;-91
2022/07/30 03:04:39;;;;;;;4.93;2.63;;;15.00;99.90;;;;;;6255658;22;20015;-92
2022/07/30 03:07:07;;;;;;;5.25;2.53;;;14.90;99.90;;;;;;6281202;22;20470;-92
2022/07/30 03:09:33;;;;;;;4.40;2.22;;;14.90;99.90;;;;;;6255524;22;20022;-94
2022/07/30 03:12:00;;;;;;;5.00;2.65;;;14.90;99.90;;;;;;6255693;22;20078;-90
2022/07/30 03:14:26;;;;;;;5.53;2.60;;;14.90;99.90;;;;;;6255330;22;20055;-90
2022/07/30 03:16:55;;;;;;;6.38;2.83;;;14.80;99.90;;;;;;6255531;22;20072;-90
2022/07/30 03:19:29;;;;;;;5.22;2.90;;;14.80;99.90;;;;;;6255484;22;20039;-90
2022/07/30 03:21:56;;;;;;;5.82;2.90;;;14.80;99.90;;;;;;6255505;22;20007;-91
2022/07/30 03:24:24;;;;;;;4.72;2.80;;;14.70;99.90;;;;;;6255472;22;20015;-90
2022/07/30 03:26:52;;;;;;;4.43;2.33;;;14.70;99.90;;;;;;6255341;22;20448;-92
2022/07/30 03:29:21;;;;;;;4.95;2.80;;;14.70;99.90;;;;;;6255430;22;20464;-92
2022/07/30 03:31:47;;;;;;;4.15;2.22;;;14.70;99.90;;;;;;6255244;22;20015;-90
2022/07/30 03:34:13;;;;;;;5.45;2.70;;;14.70;99.90;;;;;;6255663;22;20011;-90
2022/07/30 03:36:40;;;;;;;6.60;3.60;;;14.70;99.90;;;;;;6255471;22;20012;-90
2022/07/30 03:39:07;;;;;;;5.05;2.72;;;14.70;99.90;;;;;;6281065;22;20015;-91
2022/07/30 03:41:32;;;;;;;;;;;14.70;99.90;;;;;;6255687;22;20094;-90
2022/07/30 03:43:59;;;;;;;6.25;3.35;;;14.70;99.90;;;;;;6255392;22;19942;-92
2022/07/30 03:46:25;;;;;;;;;;;14.60;99.90;;;;;;6255732;22;20058;-92
2022/07/30 03:48:52;;;;;;;5.85;3.50;;;14.60;99.90;;;;;;6255731;22;20347;-90
2022/07/30 03:51:18;;;;;;;5.68;3.05;;;14.70;99.90;;;;;;6255446;22;20015;-92
2022/07/30 03:53:45;;;;;;;8.50;3.95;;;14.70;99.90;;;;;;6255260;22;20022;-89
2022/07/30 03:56:13;;;;;;;6.32;3.50;;;14.70;99.90;;;;;;6255222;22;20433;-91
2022/07/30 03:58:38;;;;;;;6.57;2.92;;;14.70;99.90;;;;;;6255441;22;20326;-92
2022/07/30 04:01:04;;;;;;;7.32;3.47;;;14.70;99.90;;;;;;6281927;22;20086;-90
2022/07/30 04:03:32;;;;;;;8.93;3.97;;;14.70;99.90;;;;;;6257335;22;20019;-93
2022/07/30 04:05:58;;;;;;;5.57;3.03;;;14.70;99.90;;;;;;6257243;22;20246;-90
2022/07/30 04:08:26;;;;;;;6.18;3.38;;;14.80;99.90;;;;;;6257407;22;20022;-91
2022/07/30 04:10:51;;;;;;;5.80;2.50;;;14.80;99.90;;;;;;6257386;22;20094;-91
2022/07/30 04:13:17;;;;;;;6.05;3.33;;;14.70;99.90;;;;;;6257497;22;20049;-93
2022/07/30 04:16:07;;;;;;;6.10;3.13;;;14.60;99.90;;;;;;6257510;22;20094;-90
2022/07/30 04:18:43;;;;;;;7.15;3.28;;;14.50;99.90;;;;;;6256645;22;20011;-91
2022/07/30 04:21:11;;;;;;;6.10;3.28;;;14.40;99.90;;;;;;6257409;22;20019;-91
2022/07/30 04:23:39;;;;;;;5.90;2.60;;;14.40;99.90;;;;;;6257064;22;20333;-91
2022/07/30 04:26:06;;;;;;;6.78;3.30;;;14.40;99.90;;;;;;6257406;22;20038;-91
2022/07/30 04:28:33;;;;;;;;;;;14.40;99.90;;;;;;6257747;22;20022;-91
2022/07/30 04:30:59;;;;;;;6.57;3.15;;;14.40;99.90;;;;;;6257334;22;19919;-92
2022/07/30 04:33:25;;;;;;;5.00;2.65;;;14.40;99.90;;;;;;6256903;22;20333;-91
2022/07/30 04:35:50;;;;;;;6.22;3.08;;;14.40;99.90;;;;;;6256706;22;20015;-90
2022/07/30 04:38:16;;;;;;;6.33;3.67;;;14.40;99.90;;;;;;6256994;22;20086;-90
2022/07/30 04:40:42;;;;;;;6.00;3.20;;;14.40;99.90;;;;;;6257162;22;20023;-91
2022/07/30 04:43:08;;;;;;;5.68;3.28;;;14.40;99.90;;;;;;6257074;22;20011;-91
2022/07/30 04:45:34;;;;;;;5.40;3.03;;;14.40;99.90;;;;;;6256745;22;20015;-91
2022/07/30 04:48:00;;;;;;;5.70;2.80;;;14.50;99.90;;;;;;6257022;22;20050;-92
2022/07/30 04:50:27;;;;;;;5.22;2.60;;;14.40;99.90;;;;;;6256942;22;20399;-92
2022/07/30 04:52:55;;;;;;;6.00;3.25;;;14.40;99.90;;;;;;6256602;22;20016;-91
2022/07/30 04:55:22;;;;;;;5.30;2.50;;;14.50;99.90;;;;;;6256881;22;20382;-92
2022/07/30 04:57:51;;;;;;;5.68;3.05;;;14.50;99.90;;;;;;6257784;22;20090;-92
2022/07/30 05:00:17;;;;;;;6.18;2.60;;;14.60;99.90;;;;;;6263562;22;20015;-91
2022/07/30 05:02:45;;;;;;;4.93;2.58;;;14.70;99.90;;;;;;6285009;22;20003;-90
2022/07/30 05:05:14;;;;;;;5.13;2.40;;;14.70;99.90;;;;;;6265439;22;20077;-91
2022/07/30 05:07:42;;;;;;;4.60;2.35;;;14.70;99.90;;;;;;6257032;22;20022;-91
2022/07/30 05:10:11;;;;;;;7.38;3.60;;;14.80;99.90;;;;;;6256835;22;20015;-90
2022/07/30 05:12:38;;;;;;;5.40;2.65;;;14.80;99.90;;;;;;6256643;22;20019;-91
2022/07/30 05:15:08;;;;;;;6.45;3.42;;;14.90;99.90;;;;;;6256304;22;20019;-91
2022/07/30 05:17:35;;;;;;;5.55;3.10;;;14.90;99.90;;;;;;6256510;22;20019;-91
2022/07/30 05:20:00;;;;;;;;;;;15.00;99.90;;;;;;6256894;22;20015;-91
2022/07/30 05:22:28;;;;;;;6.53;3.45;;;15.10;99.90;;;;;;6256477;22;20282;-90
2022/07/30 05:24:57;;;;;;;7.68;4.25;;;15.20;99.90;;;;;;6256353;22;20432;-90
2022/07/30 05:27:23;;;;;;;7.65;4.00;;;15.30;99.90;;;;;;6256405;22;20011;-89
2022/07/30 05:29:49;;;;;;;6.80;4.13;;;15.30;99.90;;;;;;6281875;22;20043;-91
2022/07/30 05:32:15;;;;;;;9.27;4.57;;;15.40;99.90;;;;;;6256696;22;20011;-92
2022/07/30 05:34:40;;;;;;;6.67;3.67;;;15.60;99.90;;;;;;6257681;22;20054;-92
2022/07/30 05:37:06;;;;;;;6.87;3.77;;;15.70;99.90;;;;;;6278498;22;20672;-92
2022/07/30 05:39:33;;;;;;;8.18;4.72;;;15.70;99.90;;;;;;6278825;22;20273;-92
2022/07/30 05:41:58;;;;;;;;;;;15.80;99.90;;;;;;6261248;22;20027;-90
2022/07/30 05:44:24;;;;;;;8.93;4.50;;;16.00;99.90;;;;;;6256571;22;19914;-92
2022/07/30 05:46:50;;;;;;;9.40;4.68;;;16.30;99.90;;;;;;6281781;22;20386;-90
2022/07/30 05:49:16;;;;;;;8.77;4.80;;;16.70;99.90;;;;;;6256528;22;20059;-90
2022/07/30 05:51:42;;;;;;;9.07;4.68;;;17.20;99.90;;;;;;6256346;22;20022;-93
2022/07/30 05:54:08;;;;;;;9.43;4.95;;;17.40;99.90;;;;;;6256170;22;20019;-91
2022/07/30 05:56:34;;;;;;;8.75;4.70;;;17.70;99.90;;;;;;6255948;22;20448;-89
2022/07/30 05:59:01;;;;;;;8.80;5.28;;;17.90;99.90;;;;;;6256024;22;20102;-93
2022/07/30 06:01:26;;;;;;;10.23;5.75;;;17.90;99.90;;;;;;6256264;22;20018;-92
2022/07/30 06:03:52;;;;;;;8.80;5.25;;;17.90;99.90;;;;;;6256322;22;20016;-90
2022/07/30 06:06:18;;;;;;;9.35;5.72;;;17.90;99.90;;;;;;6256051;22;20015;-91
2022/07/30 06:08:43;;;;;;;9.50;5.28;;;18.10;99.90;;;;;;6281263;22;20011;-92
2022/07/30 06:11:09;;;;;;;8.65;5.25;;;18.50;99.90;;;;;;6255940;22;20348;-91
2022/07/30 06:13:36;;;;;;;9.75;5.13;;;18.80;99.90;;;;;;6255783;22;20090;-93
2022/07/30 06:16:03;;;;;;;8.55;5.03;;;19.10;99.90;;;;;;6255608;22;20062;-92
2022/07/30 06:18:28;;;;;;;8.70;4.97;;;19.30;99.90;;;;;;6255632;22;20018;-93
2022/07/30 06:20:54;;;;;;;9.60;5.25;;;19.40;99.90;;;;;;6256195;22;20015;-95
2022/07/30 06:23:21;;;;;;;8.73;5.30;;;19.50;99.90;;;;;;6308377;22;20003;-93
2022/07/30 06:25:48;;;;;;;8.45;5.05;;;19.50;99.90;;;;;;6255933;22;20394;-94
2022/07/30 06:28:14;;;;;;;9.70;5.80;;;19.60;99.90;;;;;;6255851;22;20094;-92
2022/07/30 06:30:40;;;;;;;9.02;5.35;;;20.00;99.90;;;;;;6255672;22;20013;-90
2022/07/30 06:33:06;;;;;;;8.32;5.40;;;20.40;99.90;;;;;;6256053;22;20050;-90
2022/07/30 06:35:35;;;;;;;10.48;5.63;;;20.80;99.90;;;;;;6281477;22;20011;-93
2022/07/30 06:38:01;;;;;;;8.70;5.82;;;21.30;99.90;;;;;;6256027;22;20019;-93
2022/07/30 06:40:27;;;;;;;9.88;6.35;;;21.60;99.90;;;;;;6255479;22;20145;-93
2022/07/30 06:42:52;;;;;;;10.20;5.72;;;21.80;99.90;;;;;;6255928;22;20029;-92
2022/07/30 06:45:18;;;;;;;9.52;5.47;;;21.90;99.90;;;;;;6255817;22;20019;-93
2022/07/30 06:47:44;;;;;;;9.35;5.65;;;21.70;99.90;;;;;;6255900;22;20014;-92
2022/07/30 06:50:10;;;;;;;9.85;5.93;;;21.50;99.90;;;;;;6255506;22;20047;-90
2022/07/30 06:52:35;;;;;;;11.13;5.80;;;21.10;99.90;;;;;;6255533;22;20080;-96
2022/07/30 06:55:01;;;;;;;8.57;5.45;;;21.00;99.90;;;;;;6256145;22;20145;-92
2022/07/30 06:57:27;;;;;;;8.93;5.22;;;21.00;99.90;;;;;;6255596;22;20368;-93
2022/07/30 06:59:53;;;;;;;8.13;4.85;;;21.10;99.90;;;;;;6255300;22;20019;-92
2022/07/30 07:02:19;;;;;;;8.70;5.20;;;21.10;99.90;;;;;;6255638;22;20015;-96
2022/07/30 07:04:44;;;;;;;8.63;4.38;;;21.10;99.90;;;;;;6255377;22;20082;-94
2022/07/30 07:07:10;;;;;;;7.10;4.47;;;21.10;99.90;;;;;;6255854;22;20347;-95
2022/07/30 07:09:36;;;;;;;9.05;4.32;;;21.00;99.90;;;;;;6255280;22;20022;-93
2022/07/30 07:12:02;;;;;;;8.30;4.50;;;21.40;99.90;;;;;;6255226;22;20016;-93
2022/07/30 07:14:27;;;;;;;8.20;4.30;;;22.00;99.90;;;;;;6255286;22;20031;-94
2022/07/30 07:16:53;;;;;;;9.13;4.60;;;22.70;99.90;;;;;;6255437;22;20479;-94
2022/07/30 07:19:19;;;;;;;8.82;4.68;;;23.30;99.90;;;;;;6255532;22;20086;-94
2022/07/30 07:22:03;;;;;;;9.48;4.60;;;23.90;99.90;;;;;;6255412;22;20435;-94
2022/07/30 07:24:29;;;;;;;8.30;4.38;;;24.40;99.90;;;;;;6254480;22;20011;-90
2022/07/30 07:26:55;;;;;;;7.22;4.25;;;24.80;99.90;;;;;;6255081;22;20345;-89
2022/07/30 07:29:20;;;;;;;8.27;4.22;;;25.00;99.90;;;;;;6255030;22;20023;-91
2022/07/30 07:31:46;;;;;;;8.35;4.38;;;25.20;99.90;;;;;;6255016;22;20011;-91
2022/07/30 07:34:11;;;;;;;7.60;4.68;;;25.00;99.90;;;;;;6254941;22;20026;-90
2022/07/30 07:37:21;;;;;;;6.95;4.20;;;24.40;99.90;;;;;;6257530;22;20344;-89
2022/07/30 07:40:14;;;;;;;7.82;3.72;;;23.80;99.90;;;;;;6256874;22;20015;-90
2022/07/30 07:42:40;;;;;;;7.07;3.88;;;23.20;99.90;;;;;;6260972;22;20433;-96
2022/07/30 07:45:07;;;;;;;7.97;4.60;;;22.80;99.90;;;;;;6259422;22;20019;-92
2022/07/30 07:47:45;;;;;;;6.93;4.63;;;22.50;99.90;;;;;;6262820;22;20445;-96
2022/07/30 07:50:14;;;;;;;6.95;4.35;;;22.30;99.90;;;;;;6263841;22;20019;-93
2022/07/30 07:52:40;;;;;;;6.13;3.80;;;22.00;99.90;;;;;;6261617;22;20023;-95
2022/07/30 07:55:07;;;;;;;8.48;4.50;;;21.80;99.90;;;;;;6262239;22;20016;-95
2022/07/30 07:57:43;;;;;;;7.18;3.88;;;21.70;99.90;;;;;;6238443;22;20090;-90
2022/07/30 08:00:10;;;;;;;;;;;21.60;99.90;;;;;;6261601;22;20019;-93
2022/07/30 08:02:36;;;;;;;6.93;3.95;;;21.50;99.90;;;;;;6260574;22;19934;-92
2022/07/30 08:05:04;;;;;;;;;;;21.50;99.90;;;;;;6260658;22;20019;-89
2022/07/30 08:07:29;;;;;;;6.97;4.00;;;21.50;99.90;;;;;;6260279;22;19922;-94
2022/07/30 08:09:55;;;;;;;6.63;3.58;;;21.40;99.90;;;;;;6260844;22;20094;-95
2022/07/30 08:12:21;;;;;;;7.30;3.75;;;21.30;99.90;;;;;;6266632;22;20471;-93
2022/07/30 08:14:47;;;;;;;6.13;3.53;;;21.30;99.90;;;;;;6265680;22;20011;-96
2022/07/30 08:17:12;;;;;;;6.53;2.85;;;21.30;99.90;;;;;;6268498;22;20077;-94
2022/07/30 08:19:38;;;;;;;6.57;3.00;;;21.30;99.90;;;;;;6273913;22;19999;-90
2022/07/30 08:22:05;;;;;;;7.93;3.60;;;21.20;99.90;;;;;;6241793;22;20022;-96
2022/07/30 08:24:31;;;;;;;7.13;3.63;;;21.20;99.90;;;;;;6273061;22;20184;-89
2022/07/30 08:27:05;;;;;;;6.22;3.33;;;21.20;99.90;;;;;;6266863;22;20020;-90
2022/07/30 08:29:31;;;;;;;5.38;3.15;;;21.20;99.90;;;;;;6220551;23;20027;-91
2022/07/30 08:31:56;;;;;;;4.47;2.65;;;21.20;99.90;;;;;;6213422;23;20076;-91
2022/07/30 08:34:23;;;;;;;5.32;2.70;;;21.10;99.90;;;;;;6210993;23;20344;-92
2022/07/30 08:36:52;;;;;;;6.18;3.25;;;21.10;99.90;;;;;;6234834;23;20020;-92
2022/07/30 08:39:17;;;;;;;6.80;3.30;;;21.10;99.90;;;;;;6206130;23;20023;-96
2022/07/30 08:41:57;;;;;;;5.55;3.08;;;21.20;99.90;;;;;;6204608;23;20027;-95
2022/07/30 08:44:34;;;;;;;5.90;2.53;;;21.10;99.90;;;;;;6226107;23;20023;-89
2022/07/30 08:47:02;;;;;;;4.10;2.58;;;21.20;99.90;;;;;;6205778;23;20016;-89
2022/07/30 08:49:30;;;;;;;4.85;2.13;;;21.20;99.90;;;;;;6206474;23;20016;-89
2022/07/30 08:52:18;;;;;;;4.18;2.25;;;21.20;99.90;;;;;;6235460;23;20016;-91
2022/07/30 08:55:09;;;;;;;3.92;2.15;;;21.30;99.90;;;;;;6237264;23;20022;-89
2022/07/30 09:00:13;;;;;;;4.07;2.20;;;21.40;99.90;;;;;;6291564;22;20318;-88
2022/07/30 09:02:56;;;;;;;3.45;2.05;;;21.30;99.90;;;;;;6231278;22;20043;-87
2022/07/30 09:05:26;;;;;;;5.55;2.10;;;21.30;99.90;;;;;;6294599;22;20026;-88
2022/07/30 09:07:51;;;;;;;3.42;1.90;;;21.30;99.90;;;;;;6264217;22;20027;-91
2022/07/30 09:12:52;;;;;;;3.30;1.92;;;21.30;99.90;;;;;;6345204;22;20015;-89
2022/07/30 09:15:27;;;;;;;4.90;2.75;;;21.30;99.90;;;;;;6320231;22;20098;-89
2022/07/30 09:18:06;;;;;;;4.72;2.35;;;21.40;99.90;;;;;;6326087;22;20014;-88
2022/07/30 09:20:44;;;;;;;4.50;2.20;;;21.40;99.90;;;;;;6327590;22;20356;-88
2022/07/30 09:23:22;;;;;;;4.20;1.90;;;21.40;99.90;;;;;;6295078;22;20313;-87
2022/07/30 09:25:51;;;;;;;4.70;2.42;;;21.40;99.90;;;;;;6321441;22;20089;-89
2022/07/30 09:28:28;;;;;;;3.97;2.17;;;21.30;99.90;;;;;;6299842;22;20019;-88
2022/07/30 09:30:55;;;;;;;3.53;1.98;;;21.30;99.90;;;;;;6327120;22;20029;-88
2022/07/30 09:33:42;;;;;;;4.85;1.80;;;21.20;99.90;;;;;;6325917;22;20014;-88
2022/07/30 09:36:19;;;;;;;4.90;2.30;;;21.30;99.90;;;;;;6291233;22;20040;-96
2022/07/30 09:38:50;;;;;;;4.47;1.80;;;21.30;99.90;;;;;;6287296;22;20478;-90
2022/07/30 09:41:34;;;;;;;3.63;2.00;;;21.40;99.90;;;;;;6289689;22;20054;-94
2022/07/30 09:44:03;;;;;;;3.40;1.77;;;21.40;99.90;;;;;;6289411;22;20015;-93
2022/07/30 09:46:46;;;;;;;3.65;2.05;;;21.50;99.90;;;;;;6287061;22;20377;-94
2022/07/30 09:49:17;;;;;;;4.40;2.00;;;21.50;99.90;;;;;;6288945;22;20010;-92
2022/07/30 09:52:22;;;;;;;4.85;2.25;;;21.50;99.90;;;;;;6289697;22;20340;-92
2022/07/30 09:54:54;;;;;;;3.25;1.60;;;21.50;99.90;;;;;;6292004;22;20068;-96
2022/07/30 09:57:23;;;;;;;3.90;1.80;;;21.60;99.90;;;;;;6291000;22;20447;-91
2022/07/30 10:00:33;;;;;;;4.97;2.50;;;21.70;99.90;;;;;;6314828;22;20033;-95
2022/07/30 10:03:46;;;;;;;3.00;1.50;;;21.60;99.90;;;;;;6289132;22;20019;-90
2022/07/30 10:06:15;;;;;;;2.60;1.48;;;21.70;99.90;;;;;;6161384;23;20028;-92
2022/07/30 10:08:50;;;;;;;2.50;1.58;;;21.70;99.90;;;;;;6160752;23;20021;-91
2022/07/30 10:11:21;;;;;;;5.13;1.83;;;21.80;99.90;;;;;;6241298;22;20050;-90
2022/07/30 10:13:49;;;;;;;2.97;1.50;;;21.80;99.90;;;;;;6313798;22;20018;-92
2022/07/30 10:16:15;;;;;;;3.13;1.73;;;21.90;99.90;;;;;;6286994;22;20044;-94
2022/07/30 10:21:17;;;;;;;3.72;1.80;;;22.00;99.90;;;;;;6288282;22;20019;-92
2022/07/30 10:23:44;;;;;;;3.00;1.55;;;22.00;99.90;;;;;;6230326;22;20075;-87
2022/07/30 10:26:10;;;;;;;3.40;1.88;;;22.00;99.90;;;;;;6253179;22;20318;-87
2022/07/30 10:28:56;;;;;;;3.97;1.50;;;22.00;99.90;;;;;;6227235;22;20031;-91
2022/07/30 10:31:45;;;;;;;3.08;1.58;;;22.00;99.90;;;;;;6235846;22;20004;-87
2022/07/30 10:34:12;;;;;;;4.50;1.80;;;22.10;99.90;;;;;;6233636;22;20012;-89
2022/07/30 10:36:51;;;;;;;3.63;1.80;;;22.10;99.90;;;;;;6250176;22;20027;-87
2022/07/30 10:39:23;;;;;;;3.55;1.40;;;22.20;99.90;;;;;;6224036;22;20514;-94
2022/07/30 10:42:10;;;;;;;2.65;1.48;;;22.30;99.90;;;;;;6226882;22;20035;-94
2022/07/30 10:45:10;;;;;;;2.65;1.50;;;22.40;99.90;;;;;;6226615;22;20020;-88
2022/07/30 10:47:56;;;;;;;4.72;1.55;;;22.50;99.90;;;;;;6228499;22;20019;-89
2022/07/30 10:50:27;;;;;;;4.15;2.00;;;22.70;99.90;;;;;;6223514;22;20088;-89
2022/07/30 10:53:00;;;;;;;1.98;1.20;;;22.70;99.90;;;;;;6250454;22;20046;-94
2022/07/30 11:06:08;;;;;;;3.47;1.50;;;23.30;99.90;;;;;;6276802;22;20020;-90
2022/07/30 11:08:40;;;;;;;3.22;1.50;;;23.30;99.90;;;;;;6249451;22;20012;-90
2022/07/30 11:11:21;;;;;;;6.45;4.05;;;23.20;99.90;;;;;;6225575;22;20007;-90
2022/07/30 11:18:05;;;;;;;4.30;1.60;;;23.00;99.90;;;;;;6298661;22;20019;-94
2022/07/30 11:20:32;;;;;;;2.83;1.80;;;23.10;99.90;;;;;;6199757;22;20047;-93
2022/07/30 11:23:38;;;;;;;3.30;1.95;;;23.20;99.90;;;;;;6224852;22;20046;-93
2022/07/30 11:26:04;;;;;;;3.25;1.88;;;23.40;99.90;;;;;;6224800;22;20023;-96
2022/07/30 11:28:57;;;;;;;;;;;23.30;99.90;;;;;;6225217;22;20019;-94
2022/07/30 11:31:32;;;;;;;3.67;1.70;;;23.30;99.90;;;;;;6224474;22;20383;-90
2022/07/30 11:34:33;;;;;;;5.82;1.85;;;23.30;99.90;;;;;;6224288;22;20031;-88
2022/07/30 11:37:03;;;;;;;4.32;1.73;;;23.30;99.90;;;;;;6075485;23;20024;-91
2022/07/30 11:39:56;;;;;;;4.03;2.00;;;23.40;99.90;;;;;;6197796;22;20015;-91
2022/07/30 11:42:42;;;;;;;4.03;1.63;;;23.60;99.90;;;;;;6225075;22;20027;-91
2022/07/30 11:45:17;;;;;;;2.47;1.25;;;23.60;99.90;;;;;;6249504;22;20053;-87
2022/07/30 11:47:48;;;;;;;4.10;1.60;;;23.60;99.90;;;;;;6249707;22;20342;-92
2022/07/30 11:50:19;;;;;;;3.60;1.90;;;23.60;99.90;;;;;;6259579;22;20015;-91
2022/07/30 11:52:51;;;;;;;4.93;1.90;;;23.60;99.60;;;;;;6240563;22;20015;-90
2022/07/30 11:55:32;;;;;;;3.95;2.15;;;23.50;99.70;;;;;;6250358;22;20449;-90
2022/07/30 11:58:00;;;;;;;3.63;1.77;;;23.40;99.70;;;;;;6276929;22;20019;-93
2022/07/30 12:00:39;;;;;;;2.60;1.40;;;23.30;99.90;;;;;;6224249;22;20094;-92
2022/07/30 12:03:10;;;;;;;4.65;1.85;;;23.10;99.90;;;;;;6249884;22;20071;-91
2022/07/30 12:05:36;;;;;;;3.17;1.58;;;23.20;99.90;;;;;;6249162;22;20027;-91
2022/07/30 12:08:04;;;;;;;4.40;2.03;;;23.20;99.90;;;;;;6224326;22;20016;-91
2022/07/30 12:10:30;;;;;;;3.60;2.10;;;23.20;99.70;;;;;;6223846;22;20016;-90
2022/07/30 12:13:28;;;;;;;3.15;1.48;;;23.10;99.70;;;;;;6224377;22;20035;-89
2022/07/30 12:15:54;;;;;;;4.32;1.73;;;23.10;99.80;;;;;;6168297;22;20476;-89
2022/07/30 12:18:25;;;;;;;2.60;1.35;;;23.10;99.90;;;;;;6224407;22;20078;-90
2022/07/30 12:21:00;;;;;;;3.85;1.90;;;23.10;99.90;;;;;;6224700;22;20019;-90
2022/07/30 12:23:27;;;;;;;4.32;1.83;;;23.00;99.80;;;;;;6252063;22;20113;-90
2022/07/30 12:25:52;;;;;;;4.00;2.10;;;22.90;99.90;;;;;;6278788;22;20044;-91
2022/07/30 12:28:26;;;;;;;3.67;1.58;;;22.90;99.80;;;;;;6226445;22;20463;-91
2022/07/30 12:30:53;;;;;;;4.88;2.00;;;22.80;99.90;;;;;;6226504;22;20015;-89
2022/07/30 12:33:20;;;;;;;2.63;1.65;;;22.90;99.90;;;;;;6226011;22;20016;-91
2022/07/30 12:35:53;;;;;;;4.40;1.85;;;23.10;99.90;;;;;;6251314;22;20023;-90
2022/07/30 12:38:21;;;;;;;4.18;1.60;;;23.20;99.80;;;;;;6225766;22;20016;-89
2022/07/30 12:41:01;;;;;;;3.25;1.30;;;23.30;99.80;;;;;;6251141;22;20016;-90
2022/07/30 12:43:46;;;;;;;4.97;2.40;;;23.20;99.50;;;;;;6278257;22;20087;-88
2022/07/30 12:46:39;;;;;;;3.65;1.83;;;23.30;99.60;;;;;;6226085;22;20016;-92
2022/07/30 12:49:06;;;;;;;3.20;1.58;;;23.30;99.50;;;;;;6278080;22;20012;-88
2022/07/30 12:51:34;;;;;;;2.78;1.60;;;23.30;99.60;;;;;;6278137;22;20026;-92
2022/07/30 12:54:12;;;;;;;4.70;1.70;;;23.40;99.70;;;;;;6226033;22;20012;-91
2022/07/30 12:56:38;;;;;;;2.85;1.50;;;23.50;99.60;;;;;;6225934;22;20022;-91
2022/07/30 12:59:04;;;;;;;;;;;23.60;99.40;;;;;;6226123;22;20015;-91
2022/07/30 13:01:43;;;;;;;4.15;1.40;;;23.70;98.30;;;;;;6225705;22;20241;-91
2022/07/30 13:04:09;;;;;;;2.97;1.48;;;23.80;99.00;;;;;;6225927;22;20011;-91
2022/07/30 13:06:36;;;;;;;3.40;1.60;;;23.90;99.30;;;;;;6225877;22;20026;-90
2022/07/30 13:09:03;;;;;;;3.00;1.50;;;24.00;99.10;;;;;;6251027;22;20012;-89
2022/07/30 13:11:43;;;;;;;3.33;1.65;;;24.10;98.90;;;;;;6225924;22;20016;-92
2022/07/30 13:14:11;;;;;;;3.35;1.65;;;24.20;98.80;;;;;;6226101;22;20012;-92
2022/07/30 13:16:38;;;;;;;3.20;1.58;;;24.20;99.10;;;;;;6252094;22;20020;-93
2022/07/30 13:19:05;;;;;;;2.95;1.42;;;24.20;98.90;;;;;;6225864;22;20022;-94
2022/07/30 13:21:32;;;;;;;2.17;1.35;;;24.20;98.40;;;;;;6251305;22;20133;-93
2022/07/30 13:23:58;;;;;;;4.93;1.35;;;24.30;98.20;;;;;;6226531;22;20016;-92
2022/07/30 13:26:25;;;;;;;2.33;1.23;;;24.30;98.20;;;;;;6226058;22;20069;-94
2022/07/30 13:28:51;;;;;;;3.88;1.10;;;24.30;98.10;;;;;;6225625;22;20057;-91
2022/07/30 13:31:17;;;;;;;;;;;24.40;98.10;;;;;;6226282;22;20022;-96
2022/07/30 13:33:43;;;;;;;2.70;1.35;;;24.50;97.20;;;;;;6278557;22;20355;-91
2022/07/30 13:36:08;;;;;;;;;;;24.50;97.80;;;;;;6226582;22;20008;-92
2022/07/30 13:38:34;;;;;;;1.85;0.90;;;24.50;94.20;;;;;;6251544;22;19923;-95